createdAt,value
2023-02-11T00:00:54.315Z,2.63
2023-02-11T00:06:00.717Z,2.89
2023-02-11T00:11:02.252Z,2.94
2023-02-11T00:16:11.488Z,3.13
2023-02-11T00:21:18.574Z,2.79
2023-02-11T00:26:25.792Z,2.71
2023-02-11T00:31:27.991Z,2.64
2023-02-11T00:36:30.173Z,2.76
2023-02-11T00:41:31.605Z,2.72
2023-02-11T00:46:33.257Z,2.96
2023-02-11T00:51:34.762Z,3.07
2023-02-11T00:56:36.236Z,3.16
2023-02-11T01:01:37.747Z,3.26
2023-02-11T01:06:39.316Z,3.29
2023-02-11T01:11:40.828Z,3.27
2023-02-11T01:16:43.073Z,3.26
2023-02-11T01:21:44.616Z,3.36
2023-02-11T01:26:46.112Z,3.42
2023-02-11T01:31:47.691Z,3.35
2023-02-11T01:36:49.128Z,3.27
2023-02-11T01:41:50.698Z,3.04
2023-02-11T01:46:52.848Z,2.88
2023-02-11T01:52:12.539Z,2.99
2023-02-11T01:57:17.240Z,2.87
2023-02-11T02:02:23.252Z,2.79
2023-02-11T02:07:41.196Z,2.99
2023-02-11T02:12:42.861Z,2.96
2023-02-11T02:17:57.335Z,2.90
2023-02-11T02:23:24.895Z,3.04
2023-02-11T02:28:59.055Z,3.17
2023-02-11T02:34:06.942Z,3.23
2023-02-11T02:39:15.563Z,3.27
2023-02-11T02:44:18.895Z,3.30
2023-02-11T02:49:20.357Z,3.09
2023-02-11T02:54:40.461Z,3.10
2023-02-11T02:59:47.689Z,2.95
2023-02-11T03:05:14.525Z,2.60
2023-02-11T03:10:19.104Z,2.81
2023-02-11T03:15:24.488Z,2.67
2023-02-11T03:20:28.703Z,2.77
2023-02-11T03:25:36.948Z,2.75
2023-02-11T03:30:50.242Z,2.80
2023-02-11T03:36:00.468Z,2.77
2023-02-11T03:41:05.747Z,2.62
2023-02-11T03:46:09.667Z,2.58
2023-02-11T03:51:14.193Z,2.55
2023-02-11T03:56:20.730Z,2.42
2023-02-11T04:01:22.463Z,2.56
2023-02-11T04:06:24.074Z,2.62
2023-02-11T04:11:25.685Z,2.50
2023-02-11T04:16:27.371Z,2.55
2023-02-11T04:21:29.023Z,2.49
2023-02-11T04:26:30.627Z,2.32
2023-02-11T04:31:32.149Z,2.38
2023-02-11T04:36:33.627Z,2.20
2023-02-11T04:41:35.227Z,2.20
2023-02-11T04:46:36.765Z,2.09
2023-02-11T04:51:38.450Z,1.98
2023-02-11T04:56:39.984Z,1.97
2023-02-11T05:01:41.786Z,2.01
2023-02-11T05:06:43.342Z,1.85
2023-02-11T05:11:44.939Z,1.67
2023-02-11T05:16:46.542Z,1.73
2023-02-11T05:22:01.658Z,1.92
2023-02-11T05:27:04.019Z,2.00
2023-02-11T05:32:05.440Z,1.94
2023-02-11T05:37:06.908Z,1.77
2023-02-11T05:42:08.624Z,1.92
2023-02-11T05:47:10.162Z,1.83
2023-02-11T05:52:11.591Z,1.80
2023-02-11T05:57:13.674Z,1.96
2023-02-11T06:02:15.148Z,1.95
2023-02-11T06:07:16.636Z,1.80
2023-02-11T06:12:18.372Z,1.87
2023-02-11T06:17:19.906Z,1.87
2023-02-11T06:22:21.496Z,1.89
2023-02-11T06:27:23.192Z,2.04
2023-02-11T06:32:42.733Z,2.04
2023-02-11T06:37:45.159Z,2.22
2023-02-11T06:42:46.676Z,2.22
2023-02-11T06:47:48.114Z,2.26
2023-02-11T06:52:49.573Z,2.25
2023-02-11T06:57:51.119Z,2.32
2023-02-11T07:02:52.559Z,2.50
2023-02-11T07:07:54.125Z,2.42
2023-02-11T07:12:57.782Z,2.26
2023-02-11T07:18:00.291Z,2.46
2023-02-11T07:23:01.760Z,2.49
2023-02-11T07:28:04.008Z,2.36
2023-02-11T07:33:05.582Z,2.52
2023-02-11T07:38:07.060Z,2.69
2023-02-11T07:43:08.453Z,2.94
2023-02-11T07:48:09.901Z,2.90
2023-02-11T07:53:11.409Z,3.32
2023-02-11T07:58:12.959Z,3.44
2023-02-11T08:03:14.432Z,3.41
2023-02-11T08:08:15.916Z,3.33
2023-02-11T08:13:17.338Z,3.24
2023-02-11T08:18:18.758Z,3.20
2023-02-11T08:23:20.289Z,3.40
2023-02-11T08:28:21.783Z,3.53
2023-02-11T08:33:23.325Z,3.79
2023-02-11T08:38:24.788Z,3.79
2023-02-11T08:43:26.274Z,3.78
2023-02-11T08:48:27.750Z,3.97
2023-02-11T08:53:29.266Z,4.13
2023-02-11T08:58:30.824Z,4.35
2023-02-11T09:03:32.281Z,4.42
2023-02-11T09:08:35.492Z,4.61
2023-02-11T09:13:37.452Z,4.65
2023-02-11T09:18:38.881Z,4.86
2023-02-11T09:23:40.446Z,5.04
2023-02-11T09:28:41.964Z,5.02
2023-02-11T09:33:45.488Z,5.01
2023-02-11T09:38:48.460Z,4.92
2023-02-11T09:44:02.033Z,5.26
2023-02-11T09:49:05.461Z,5.30
2023-02-11T09:54:46.521Z,5.29
2023-02-11T09:59:48.019Z,5.29
2023-02-11T10:05:32.028Z,5.45
2023-02-11T10:10:44.460Z,5.27
2023-02-11T10:16:01.609Z,5.40
2023-02-11T10:21:14.911Z,5.39
2023-02-11T10:26:18.960Z,5.39
2023-02-11T10:31:35.880Z,5.66
2023-02-11T10:36:40.172Z,5.64
2023-02-11T10:42:08.669Z,5.63
2023-02-11T10:47:22.253Z,5.68
2023-02-11T10:52:26.239Z,5.59
2023-02-11T10:57:32.938Z,5.57
2023-02-11T11:02:36.706Z,5.52
2023-02-11T11:07:38.410Z,5.73
2023-02-11T11:12:45.607Z,5.78
2023-02-11T11:17:49.177Z,5.82
2023-02-11T11:22:54.172Z,5.95
2023-02-11T11:28:02.527Z,5.85
2023-02-11T11:33:04.724Z,5.92
2023-02-11T11:38:06.457Z,5.96
2023-02-11T11:43:13.684Z,5.98
2023-02-11T11:48:22.176Z,6.12
2023-02-11T11:53:49.571Z,6.15
2023-02-11T11:58:51.415Z,6.21
2023-02-11T12:03:55.537Z,5.78
2023-02-11T12:09:29.537Z,6.23
2023-02-11T12:14:49.957Z,6.11
2023-02-11T12:20:13.479Z,6.22
2023-02-11T12:25:27.886Z,6.15
2023-02-11T12:31:02.397Z,6.21
2023-02-11T12:36:13.119Z,6.26
2023-02-11T12:41:41.589Z,6.45
2023-02-11T12:47:26.297Z,6.26
2023-02-11T12:52:47.845Z,6.30
2023-02-11T12:57:53.016Z,6.45
2023-02-11T13:03:09.620Z,6.51
2023-02-11T13:08:28.731Z,6.54
2023-02-11T13:13:48.938Z,6.62
2023-02-11T13:19:27.874Z,6.59
2023-02-11T13:25:01.558Z,6.59
2023-02-11T13:30:29.352Z,6.74
2023-02-11T13:35:39.898Z,6.75
2023-02-11T13:40:41.558Z,6.76
2023-02-11T13:45:45.590Z,6.56
2023-02-11T13:50:50.952Z,6.61
2023-02-11T13:56:05.121Z,6.48
2023-02-11T14:01:07.307Z,6.72
2023-02-11T14:06:08.991Z,6.76
2023-02-11T14:11:32.299Z,6.69
2023-02-11T14:16:38.266Z,6.86
2023-02-11T14:21:42.891Z,6.54
2023-02-11T14:26:52.635Z,6.61
2023-02-11T14:32:32.591Z,6.65
2023-02-11T14:37:49.180Z,6.69
2023-02-11T14:42:54.237Z,6.69
2023-02-11T14:48:02.096Z,6.61
2023-02-11T14:53:04.427Z,6.59
2023-02-11T14:58:16.585Z,6.69
2023-02-11T15:03:45.170Z,6.54
2023-02-11T15:08:53.536Z,6.64
2023-02-11T15:13:56.878Z,6.65
2023-02-11T15:19:02.721Z,6.55
2023-02-11T15:24:23.341Z,6.72
2023-02-11T15:29:26.796Z,6.64
2023-02-11T15:34:28.446Z,6.62
2023-02-11T15:39:32.896Z,6.55
2023-02-11T15:44:34.373Z,6.61
2023-02-11T15:49:35.958Z,6.77
2023-02-11T15:54:37.805Z,6.74
2023-02-11T15:59:45.864Z,6.89
2023-02-11T16:04:56.353Z,6.80
2023-02-11T16:09:58.658Z,6.63
2023-02-11T16:15:30.331Z,6.68
2023-02-11T16:20:31.924Z,6.59
2023-02-11T16:25:35.482Z,6.39
2023-02-11T16:30:39.390Z,6.56
2023-02-11T16:35:40.991Z,6.45
2023-02-11T16:40:42.822Z,6.43
2023-02-11T16:45:44.347Z,6.36
2023-02-11T16:50:51.483Z,6.34
2023-02-11T16:55:54.805Z,6.25
2023-02-11T17:00:56.602Z,6.22
2023-02-11T17:05:58.105Z,6.17
2023-02-11T17:10:59.753Z,6.17
2023-02-11T17:16:01.199Z,6.09
2023-02-11T17:21:06.651Z,6.12
2023-02-11T17:26:09.102Z,6.09
2023-02-11T17:31:10.606Z,6.06
2023-02-11T17:36:12.194Z,6.00
2023-02-11T17:41:13.680Z,6.05
2023-02-11T17:46:15.267Z,6.02
2023-02-11T17:51:27.255Z,5.97
2023-02-11T17:56:29.566Z,5.97
2023-02-11T18:01:33.259Z,5.89
2023-02-11T18:06:35.142Z,5.91
2023-02-11T18:11:38.875Z,5.97
2023-02-11T18:16:40.453Z,6.03
2023-02-11T18:21:42.036Z,5.99
2023-02-11T18:26:43.817Z,6.00
2023-02-11T18:31:45.448Z,5.96
2023-02-11T18:36:46.895Z,5.90
2023-02-11T18:41:48.402Z,5.93
2023-02-11T18:46:50.330Z,5.94
2023-02-11T18:51:52.029Z,5.87
2023-02-11T18:56:53.655Z,5.79
2023-02-11T19:01:55.163Z,5.81
2023-02-11T19:06:56.620Z,5.75
2023-02-11T19:11:58.136Z,5.65
2023-02-11T19:17:03.258Z,5.70
2023-02-11T19:22:05.052Z,5.73
2023-02-11T19:27:06.505Z,5.69
2023-02-11T19:32:08.255Z,5.63
2023-02-11T19:37:11.339Z,5.55
2023-02-11T19:42:13.442Z,5.55
2023-02-11T19:47:15.013Z,5.52
2023-02-11T19:52:16.455Z,5.49
2023-02-11T19:57:18.150Z,5.46
2023-02-11T20:02:19.817Z,5.51
2023-02-11T20:07:21.402Z,5.69
2023-02-11T20:12:22.960Z,5.59
2023-02-11T20:17:24.541Z,5.56
2023-02-11T20:22:26.119Z,5.55
2023-02-11T20:27:27.563Z,5.63
2023-02-11T20:32:31.144Z,5.50
2023-02-11T20:37:34.411Z,5.55
2023-02-11T20:42:36.088Z,5.63
2023-02-11T20:47:38.210Z,5.66
2023-02-11T20:52:39.877Z,5.55
2023-02-11T20:57:41.460Z,5.53
2023-02-11T21:02:43.042Z,5.48
2023-02-11T21:07:44.896Z,5.44
2023-02-11T21:12:49.543Z,5.45
2023-02-11T21:17:51.471Z,5.55
2023-02-11T21:22:53.014Z,5.49
2023-02-11T21:27:54.589Z,5.39
2023-02-11T21:32:58.286Z,5.39
2023-02-11T21:37:59.820Z,5.39
2023-02-11T21:43:01.302Z,5.39
2023-02-11T21:48:02.790Z,5.32
2023-02-11T21:53:06.940Z,5.31
2023-02-11T21:58:09.103Z,5.25
2023-02-11T22:03:11.922Z,5.11
2023-02-11T22:08:13.430Z,5.15
2023-02-11T22:13:14.834Z,5.16
2023-02-11T22:18:16.318Z,5.07
2023-02-11T22:23:17.797Z,5.04
2023-02-11T22:28:19.213Z,5.08
2023-02-11T22:33:21.806Z,5.21
2023-02-11T22:38:23.357Z,5.24
2023-02-11T22:43:25.300Z,5.32
2023-02-11T22:48:26.892Z,5.30
2023-02-11T22:53:28.405Z,5.33
2023-02-11T22:58:29.846Z,5.28
2023-02-11T23:03:32.299Z,5.26
2023-02-11T23:08:34.334Z,5.28
2023-02-11T23:13:37.778Z,5.19
2023-02-11T23:18:42.449Z,5.21
2023-02-11T23:23:46.285Z,5.26
2023-02-11T23:28:47.834Z,5.23
2023-02-11T23:33:49.538Z,5.24
2023-02-11T23:38:51.169Z,5.29
2023-02-11T23:43:57.367Z,5.37
2023-02-11T23:48:58.982Z,5.36
2023-02-11T23:54:01.234Z,5.21
2023-02-11T23:59:02.808Z,5.21
